Time;durP1;ratioP1;P1;durP2;ratioP2;P2;SDS_P1;SDS_P2;PMS_P1;PMS_P2;Temp;Humidity;BMP_temperature;BMP_pressure;BME280_temperature;BME280_humidity;BME280_pressure;Samples;Min_cycle;Max_cycle;Signal;HPM_P1;HPM_P2
2023/05/30 00:01:21;;;;;;;5.20;2.30;;;;;;;15.45;53.27;100994.25;5049621;28;20238;-69
2023/05/30 00:03:48;;;;;;;7.07;2.60;;;;;;;15.42;53.96;101002.25;5048061;28;20602;-70
2023/05/30 00:06:16;;;;;;;8.10;3.07;;;;;;;15.32;54.02;100997.78;5046274;28;20219;-70
2023/05/30 00:08:43;;;;;;;5.93;2.23;;;;;;;15.30;53.97;100997.78;5069708;28;20252;-70
2023/05/30 00:11:13;;;;;;;6.20;2.43;;;;;;;15.20;54.46;101008.38;5064605;28;20586;-70
2023/05/30 00:13:44;;;;;;;4.47;2.40;;;;;;;15.10;54.97;101003.88;5049595;28;20253;-70
2023/05/30 00:16:12;;;;;;;4.03;2.13;;;;;;;15.11;53.14;101005.66;5046340;28;20202;-69
2023/05/30 00:18:39;;;;;;;4.60;2.50;;;;;;;15.09;54.32;101010.09;5049856;28;20195;-70
2023/05/30 00:21:07;;;;;;;4.23;2.20;;;;;;;15.04;53.90;101005.63;5047697;28;20215;-70
2023/05/30 00:23:35;;;;;;;6.70;2.30;;;;;;;14.97;54.64;101010.94;5043288;28;20199;-70
2023/05/30 00:26:03;;;;;;;6.27;2.77;;;;;;;14.96;53.29;101004.72;5051115;28;20310;-70
2023/05/30 00:28:30;;;;;;;4.40;2.20;;;;;;;14.91;53.99;101008.25;5048032;28;20201;-70
2023/05/30 00:30:59;;;;;;;6.60;2.87;;;;;;;14.87;54.53;101004.69;5049339;28;20702;-69
2023/05/30 00:33:26;;;;;;;4.80;2.40;;;;;;;14.82;54.85;101005.53;5049817;28;20297;-70
2023/05/30 00:35:52;;;;;;;6.13;2.33;;;;;;;14.72;55.12;101002.78;5068683;28;20285;-70
2023/05/30 00:38:18;;;;;;;5.03;2.27;;;;;;;14.69;54.65;101005.44;5069379;28;20204;-69
2023/05/30 00:40:45;;;;;;;5.97;2.23;;;;;;;14.63;54.57;101010.72;5054366;28;20301;-70
2023/05/30 00:43:11;;;;;;;14.77;2.93;;;;;;;14.70;54.43;101006.31;5044071;28;20202;-69
2023/05/30 00:45:38;;;;;;;10.27;2.63;;;;;;;14.69;54.28;101004.53;5048633;28;20308;-69
2023/05/30 00:48:05;;;;;;;5.47;1.97;;;;;;;14.65;54.05;101005.41;5049784;28;20249;-69
2023/05/30 00:50:33;;;;;;;4.77;2.33;;;;;;;14.64;54.86;101011.63;5045931;28;20697;-68
2023/05/30 00:53:00;;;;;;;5.90;2.10;;;;;;;14.50;54.36;101003.53;5052729;28;20682;-69
2023/05/30 00:55:27;;;;;;;5.57;2.07;;;;;;;14.53;54.62;101006.22;5048064;28;20199;-69
2023/05/30 00:57:54;;;;;;;5.50;2.00;;;;;;;14.49;54.88;100998.19;5048274;28;20201;-70
2023/05/30 01:00:23;;;;;;;6.20;2.53;;;;;;;14.34;55.44;101002.47;5035851;28;20282;-70
2023/05/30 01:02:50;;;;;;;7.40;2.43;;;;;;;14.39;55.51;101000.72;5069278;28;20198;-70
2023/05/30 01:05:17;;;;;;;7.53;2.30;;;;;;;14.26;56.21;100982.00;5069155;28;20507;-70
2023/05/30 01:07:44;;;;;;;5.33;2.00;;;;;;;14.24;56.63;100989.09;5065555;28;20208;-70
2023/05/30 01:10:12;;;;;;;5.30;2.20;;;;;;;14.27;56.49;100990.00;5042176;28;20230;-69
2023/05/30 01:12:56;;;;;;;5.47;2.63;;;;;;;14.19;56.70;100991.72;5046463;28;20220;-70
2023/05/30 01:15:32;;;;;;;4.87;2.20;;;;;;;14.11;57.26;100982.78;5051514;28;20284;-69
2023/05/30 01:18:07;;;;;;;6.07;2.20;;;;;;;14.03;57.22;100980.03;5047374;28;20229;-70
2023/05/30 01:20:40;;;;;;;6.17;2.53;;;;;;;14.05;57.18;100988.94;5050348;28;20218;-69
2023/05/30 01:23:18;;;;;;;6.23;2.67;;;;;;;14.03;57.82;101001.34;5051407;28;20288;-70
2023/05/30 01:26:16;;;;;;;6.00;2.70;;;;;;;13.92;58.40;100994.13;5052790;28;20243;-70
2023/05/30 01:28:45;;;;;;;5.50;2.27;;;;;;;13.90;58.91;100998.53;5059074;28;20216;-70
2023/05/30 01:31:12;;;;;;;6.13;2.30;;;;;;;13.91;59.17;100995.00;5072509;28;20245;-69
2023/05/30 01:33:39;;;;;;;7.03;2.50;;;;;;;13.94;58.84;100993.25;5056219;28;20201;-70
2023/05/30 01:36:06;;;;;;;13.63;2.87;;;;;;;13.82;59.20;100987.81;5052473;28;20206;-68
2023/05/30 01:38:34;;;;;;;8.73;2.63;;;;;;;13.79;59.65;100990.47;5052114;28;20269;-70
2023/05/30 01:41:02;;;;;;;5.17;2.30;;;;;;;13.74;59.87;100992.19;5052298;28;20223;-69
2023/05/30 01:44:08;;;;;;;5.70;2.33;;;;;;;13.65;60.55;100992.09;5052304;28;20211;-69
2023/05/30 01:46:38;;;;;;;9.37;2.37;;;;;;;13.54;60.83;100994.63;5043923;28;20299;-69
2023/05/30 01:49:18;;;;;;;6.90;2.23;;;;;;;13.60;60.46;101007.97;5039703;28;20201;-69
2023/05/30 01:51:54;;;;;;;8.80;2.80;;;;;;;13.58;60.41;100995.53;5048679;28;20251;-70
2023/05/30 01:54:23;;;;;;;6.23;2.70;;;;;;;13.52;61.42;100999.03;5047071;28;20237;-70
2023/05/30 01:56:58;;;;;;;5.40;2.60;;;;;;;13.56;61.17;101008.84;5050226;28;20197;-67
2023/05/30 01:59:26;;;;;;;7.60;2.73;;;;;;;13.57;61.50;101002.63;5055723;28;20278;-69
2023/05/30 02:01:55;;;;;;;8.23;2.57;;;;;;;13.59;60.93;101005.31;5052778;28;20693;-70
2023/05/30 02:04:23;;;;;;;9.93;2.93;;;;;;;13.52;61.57;101001.69;5050362;28;20202;-70
2023/05/30 02:06:49;;;;;;;7.60;2.77;;;;;;;13.49;62.04;101001.66;5050819;28;20218;-70
2023/05/30 02:09:16;;;;;;;8.80;2.73;;;;;;;13.48;61.79;101006.09;5070048;28;20202;-70
2023/05/30 02:11:42;;;;;;;7.47;3.07;;;;;;;13.48;61.41;100999.88;5070846;28;20224;-70
2023/05/30 02:14:09;;;;;;;6.87;2.50;;;;;;;13.51;61.63;101007.88;5068744;28;20210;-70
2023/05/30 02:16:35;;;;;;;7.13;2.40;;;;;;;13.44;61.81;101006.03;5064213;28;20233;-71
2023/05/30 02:19:01;;;;;;;9.23;3.07;;;;;;;13.48;61.36;101002.53;5061160;28;20194;-71
2023/05/30 02:21:28;;;;;;;8.00;2.63;;;;;;;13.39;61.77;101002.44;5071634;28;20221;-70
2023/05/30 02:23:55;;;;;;;12.00;2.97;;;;;;;13.39;62.04;100994.44;5061885;28;20235;-70
2023/05/30 02:26:21;;;;;;;7.47;2.37;;;;;;;13.34;62.17;100999.72;5069089;28;20799;-69
2023/05/30 02:28:48;;;;;;;7.97;3.23;;;;;;;13.38;62.20;101001.53;5063297;28;20296;-69
2023/05/30 02:31:14;;;;;;;7.03;2.73;;;;;;;13.24;63.27;100999.59;5068914;28;20613;-71
2023/05/30 02:33:42;;;;;;;7.83;2.73;;;;;;;13.27;62.93;100999.63;5062260;28;20215;-71
2023/05/30 02:36:09;;;;;;;9.47;2.63;;;;;;;13.23;62.87;101011.13;5070543;28;20700;-71
2023/05/30 02:38:35;;;;;;;6.37;2.50;;;;;;;13.30;62.85;101005.88;5071381;28;20225;-70
2023/05/30 02:41:02;;;;;;;10.00;2.63;;;;;;;13.27;62.64;101008.50;5071464;28;20241;-71
2023/05/30 02:43:28;;;;;;;9.37;2.60;;;;;;;13.28;63.05;100996.09;5044611;28;20216;-70
2023/05/30 02:45:55;;;;;;;6.93;2.50;;;;;;;13.31;63.04;101004.13;5071184;28;20818;-69
2023/05/30 02:48:21;;;;;;;9.60;2.73;;;;;;;13.24;63.64;101002.25;5071235;28;20204;-71
2023/05/30 02:50:47;;;;;;;9.57;2.47;;;;;;;13.26;63.01;100995.19;5065663;28;20218;-71
2023/05/30 02:53:14;;;;;;;4.10;2.40;;;;;;;13.13;63.84;101002.97;5069820;28;20646;-70
2023/05/30 02:55:42;;;;;;;8.23;2.80;;;;;;;13.01;64.63;101008.13;5071287;28;20193;-71
2023/05/30 02:58:11;;;;;;;5.20;2.60;;;;;;;12.95;64.85;101009.81;5063562;28;20251;-70
2023/05/30 03:00:38;;;;;;;6.60;2.20;;;;;;;12.91;65.27;101003.56;5045984;28;20310;-70
2023/05/30 03:03:05;;;;;;;7.67;2.63;;;;;;;12.84;65.87;101002.59;5062587;28;20194;-71
2023/05/30 03:05:32;;;;;;;7.33;2.57;;;;;;;12.77;66.39;101018.41;5069645;28;20624;-71
2023/05/30 03:07:59;;;;;;;7.07;2.63;;;;;;;12.72;66.97;101009.47;5057440;28;20218;-70
2023/05/30 03:10:28;;;;;;;10.23;2.83;;;;;;;12.81;66.68;101013.19;5059770;28;20216;-71
2023/05/30 03:12:55;;;;;;;8.67;2.70;;;;;;;12.77;66.88;101013.09;5070385;28;20247;-69
2023/05/30 03:15:22;;;;;;;8.37;2.77;;;;;;;12.71;67.65;101015.66;5070698;28;20240;-70
2023/05/30 03:17:48;;;;;;;8.27;2.87;;;;;;;12.72;67.53;101020.09;5063854;28;20192;-70
2023/05/30 03:20:16;;;;;;;9.10;2.83;;;;;;;12.74;67.95;101019.25;5070439;28;20221;-71
2023/05/30 03:22:42;;;;;;;9.83;2.70;;;;;;;12.72;68.05;101018.34;5070566;28;20204;-70
2023/05/30 03:25:12;;;;;;;9.97;2.90;;;;;;;12.54;68.41;101011.00;5065612;28;20661;-71
2023/05/30 03:27:38;;;;;;;8.70;2.70;;;;;;;12.55;68.66;101010.13;5059949;28;20628;-69
2023/05/30 03:30:05;;;;;;;7.23;2.50;;;;;;;12.49;69.00;101017.13;5065964;28;20213;-70
2023/05/30 03:32:31;;;;;;;7.13;2.57;;;;;;;12.43;69.58;101014.38;5069535;28;20232;-70
2023/05/30 03:34:58;;;;;;;7.17;2.70;;;;;;;12.46;69.71;101030.34;5060220;28;20662;-70
2023/05/30 03:37:24;;;;;;;11.37;2.70;;;;;;;12.53;69.21;101027.81;5070399;28;20208;-69
2023/05/30 03:39:51;;;;;;;6.37;2.70;;;;;;;12.57;69.39;101039.38;5066014;28;20585;-71
2023/05/30 03:42:17;;;;;;;8.63;2.87;;;;;;;12.67;68.91;101045.72;5058330;28;20213;-70
2023/05/30 03:44:43;;;;;;;6.00;3.13;;;;;;;12.68;68.80;101037.78;5059388;28;20197;-70
2023/05/30 03:47:10;;;;;;;10.57;3.03;;;;;;;12.71;68.38;101036.94;5070044;28;20225;-71
2023/05/30 03:49:36;;;;;;;13.00;2.93;;;;;;;12.73;68.79;101036.06;5068896;28;20289;-71
2023/05/30 03:52:03;;;;;;;10.10;3.17;;;;;;;12.75;68.41;101044.97;5060147;28;20243;-71
2023/05/30 03:54:30;;;;;;;6.93;2.83;;;;;;;12.80;68.65;101047.69;5064058;28;20211;-72
2023/05/30 03:56:56;;;;;;;8.80;2.77;;;;;;;12.90;68.23;101044.31;5069858;28;20642;-71
2023/05/30 03:59:23;;;;;;;8.30;2.63;;;;;;;12.92;68.68;101045.22;5063996;28;20202;-72
2023/05/30 04:01:49;;;;;;;9.27;3.47;;;;;;;12.94;67.96;101043.50;5062085;28;20212;-71
2023/05/30 04:04:15;;;;;;;7.53;2.90;;;;;;;13.06;67.28;101056.94;5052070;28;20729;-69
2023/05/30 04:06:42;;;;;;;6.17;2.73;;;;;;;13.09;67.00;101051.66;5048521;28;20227;-70
2023/05/30 04:09:09;;;;;;;13.90;2.73;;;;;;;13.14;66.90;101052.63;5043022;28;20616;-71
2023/05/30 04:11:35;;;;;;;7.93;2.83;;;;;;;13.22;66.43;101054.56;5068114;28;20529;-69
2023/05/30 04:14:01;;;;;;;12.03;4.60;;;;;;;13.25;66.45;101057.25;5064933;28;20236;-71
2023/05/30 04:16:28;;;;;;;8.13;2.60;;;;;;;13.26;65.99;101065.25;5068495;28;20211;-69
2023/05/30 04:18:54;;;;;;;8.70;2.77;;;;;;;13.32;65.88;101054.69;5058546;28;20600;-68
2023/05/30 04:21:22;;;;;;;8.97;2.80;;;;;;;13.35;65.60;101060.03;5066540;28;20228;-70
2023/05/30 04:23:48;;;;;;;8.80;3.17;;;;;;;13.38;66.26;101061.84;5064567;28;20209;-71
2023/05/30 04:26:15;;;;;;;7.13;2.40;;;;;;;13.33;65.96;101068.88;5066743;28;20206;-71
2023/05/30 04:28:42;;;;;;;9.43;2.60;;;;;;;13.32;65.98;101069.75;5070074;28;20209;-70
2023/05/30 04:31:08;;;;;;;5.93;2.77;;;;;;;13.37;65.93;101071.59;5068456;28;20240;-71
2023/05/30 04:33:48;;;;;;;7.97;2.70;;;;;;;13.37;65.96;101071.59;5064695;28;20282;-70
2023/05/30 04:36:18;;;;;;;9.93;3.10;;;;;;;13.37;65.83;101068.94;5059793;28;20206;-71
2023/05/30 04:38:49;;;;;;;10.33;3.03;;;;;;;13.42;65.72;101074.31;5069819;28;20198;-69
2023/05/30 04:41:20;;;;;;;9.07;2.80;;;;;;;13.44;65.56;101078.78;5064727;28;20256;-70
2023/05/30 04:43:54;;;;;;;8.30;3.10;;;;;;;13.54;65.86;101076.22;5070354;28;20200;-71
2023/05/30 04:46:24;;;;;;;8.73;2.73;;;;;;;13.63;64.71;101081.69;5073563;28;20201;-68
2023/05/30 04:48:53;;;;;;;7.63;3.17;;;;;;;13.67;64.94;101084.41;5074357;28;20615;-69
2023/05/30 04:51:20;;;;;;;11.30;3.10;;;;;;;13.79;64.93;101086.28;5058953;28;20246;-70
2023/05/30 04:53:47;;;;;;;12.10;3.27;;;;;;;13.84;63.85;101081.91;5063201;28;20244;-70
2023/05/30 04:56:14;;;;;;;7.43;3.13;;;;;;;13.85;63.46;101081.03;5074380;28;20206;-71
2023/05/30 04:58:41;;;;;;;4.40;2.57;;;;;;;13.88;63.71;101080.16;5076216;28;20236;-69
2023/05/30 05:01:10;;;;;;;7.40;2.53;;;;;;;13.91;63.62;101081.09;5067131;28;20228;-70
2023/05/30 05:03:38;;;;;;;7.60;2.50;;;;;;;14.00;63.48;101085.63;5067983;28;20344;-69
2023/05/30 05:06:08;;;;;;;11.63;3.00;;;;;;;14.03;63.41;101088.34;5067774;28;20303;-71
2023/05/30 05:08:35;;;;;;;9.97;2.93;;;;;;;14.16;63.58;101092.03;5057891;28;20590;-72
2023/05/30 05:11:03;;;;;;;7.40;2.63;;;;;;;14.23;63.19;101089.44;5067862;28;20217;-70
2023/05/30 05:13:30;;;;;;;5.37;2.50;;;;;;;14.34;63.42;101090.41;5072815;28;20201;-71
2023/05/30 05:15:57;;;;;;;6.67;2.40;;;;;;;14.38;62.37;101097.56;5068104;28;20290;-70
2023/05/30 05:18:23;;;;;;;9.40;3.67;;;;;;;14.50;61.12;101101.25;5062258;28;20280;-68
2023/05/30 05:20:50;;;;;;;8.93;2.73;;;;;;;14.63;61.26;101103.16;5072928;28;20300;-70
2023/05/30 05:23:17;;;;;;;11.67;2.97;;;;;;;14.64;59.92;101096.94;5071471;28;20696;-70
2023/05/30 05:25:43;;;;;;;8.53;3.00;;;;;;;14.72;59.84;101098.78;5063831;28;20222;-70
2023/05/30 05:28:10;;;;;;;9.27;2.60;;;;;;;14.86;60.61;101106.00;5064019;28;20218;-70
2023/05/30 05:30:37;;;;;;;5.53;2.77;;;;;;;14.89;58.60;101104.25;5072741;28;20218;-70
2023/05/30 05:33:03;;;;;;;8.27;2.50;;;;;;;15.03;58.39;101110.56;5056999;28;20191;-70
2023/05/30 05:35:32;;;;;;;6.70;2.43;;;;;;;15.17;58.17;101110.66;5064529;28;20244;-69
2023/05/30 05:37:58;;;;;;;6.57;2.90;;;;;;;15.31;57.87;101100.06;5072414;28;20193;-70
2023/05/30 05:40:24;;;;;;;7.43;3.13;;;;;;;15.47;58.35;101106.38;5072212;28;20229;-69
2023/05/30 05:42:51;;;;;;;9.17;2.67;;;;;;;15.66;57.33;101103.84;5059936;28;20205;-70
2023/05/30 05:45:17;;;;;;;7.47;2.47;;;;;;;15.90;55.83;101103.00;5072456;28;20236;-70
2023/05/30 05:47:44;;;;;;;10.20;2.70;;;;;;;16.13;54.77;101100.41;5072226;28;20717;-71
2023/05/30 05:50:10;;;;;;;10.13;2.70;;;;;;;16.49;54.40;101096.91;5056777;28;20230;-69
2023/05/30 05:52:37;;;;;;;10.57;2.90;;;;;;;17.06;53.06;101096.91;5062758;28;20198;-70
2023/05/30 05:55:03;;;;;;;11.70;2.70;;;;;;;17.32;51.76;101103.09;5072151;28;20222;-70
2023/05/30 05:57:30;;;;;;;7.33;2.60;;;;;;;17.44;52.10;101107.50;5056365;28;20244;-70
2023/05/30 05:59:56;;;;;;;9.63;2.90;;;;;;;17.43;51.19;101109.31;5058150;28;20262;-69
2023/05/30 06:02:22;;;;;;;10.43;3.07;;;;;;;17.67;50.95;101113.72;5070874;28;20202;-70
2023/05/30 06:04:49;;;;;;;5.37;2.57;;;;;;;18.02;51.17;101110.88;5072186;28;20198;-70
2023/05/30 06:07:16;;;;;;;8.67;2.40;;;;;;;18.16;50.24;101117.03;5071715;28;20218;-70
2023/05/30 06:09:43;;;;;;;6.17;2.37;;;;;;;18.13;50.03;101119.75;5046248;28;20218;-70
2023/05/30 06:12:09;;;;;;;9.67;2.60;;;;;;;18.36;45.76;101114.22;5071907;28;20248;-70
2023/05/30 06:14:36;;;;;;;7.83;2.40;;;;;;;18.19;42.29;101113.44;5072285;28;20199;-69
2023/05/30 06:17:03;;;;;;;10.47;2.50;;;;;;;18.04;43.10;101114.44;5063704;28;20287;-71
2023/05/30 06:19:30;;;;;;;5.73;2.33;;;;;;;18.12;41.90;101115.28;5071700;28;20221;-70
2023/05/30 06:21:56;;;;;;;8.07;2.60;;;;;;;17.96;42.11;101113.56;5066006;28;20231;-69
2023/05/30 06:24:22;;;;;;;6.57;2.30;;;;;;;17.98;41.83;101110.88;5070595;28;20202;-71
2023/05/30 06:26:49;;;;;;;10.17;2.67;;;;;;;17.96;42.90;101105.53;5060907;28;20190;-70
2023/05/30 06:29:15;;;;;;;5.83;2.30;;;;;;;17.93;41.98;101110.91;5048439;28;20199;-70
2023/05/30 06:31:42;;;;;;;7.93;2.37;;;;;;;17.95;42.36;101110.91;5066709;28;20222;-70
2023/05/30 06:34:08;;;;;;;6.80;2.10;;;;;;;18.13;42.30;101113.50;5048359;28;20837;-70
2023/05/30 06:36:35;;;;;;;4.93;2.10;;;;;;;18.09;41.77;101117.97;5071269;28;20202;-70
2023/05/30 06:39:02;;;;;;;5.80;2.50;;;;;;;18.24;41.61;101116.09;5070113;28;20192;-70
2023/05/30 06:41:29;;;;;;;3.70;1.97;;;;;;;18.29;40.00;101119.63;5059593;28;20569;-70
2023/05/30 06:43:55;;;;;;;6.80;2.40;;;;;;;18.30;41.65;101125.00;5043907;28;20195;-70
2023/05/30 06:46:21;;;;;;;7.87;2.50;;;;;;;18.34;41.54;101120.50;5068674;28;20589;-70
2023/05/30 06:48:48;;;;;;;10.80;2.93;;;;;;;18.50;41.21;101121.28;5071213;28;20748;-70
2023/05/30 06:51:14;;;;;;;5.03;1.97;;;;;;;18.76;41.13;101133.63;5060840;28;20308;-70
2023/05/30 06:53:41;;;;;;;7.03;2.30;;;;;;;18.73;39.71;101132.75;5065652;28;20201;-71
2023/05/30 06:56:07;;;;;;;5.07;2.27;;;;;;;18.74;39.35;101131.84;5061150;28;20208;-71
2023/05/30 06:58:33;;;;;;;7.63;2.40;;;;;;;18.91;39.64;101134.41;5059456;28;20642;-71
2023/05/30 07:01:00;;;;;;;6.23;2.27;;;;;;;19.05;39.63;101133.38;5067024;28;20233;-71
2023/05/30 07:03:26;;;;;;;6.77;1.97;;;;;;;19.00;39.81;101137.91;5069832;28;20194;-71
2023/05/30 07:05:53;;;;;;;6.67;2.30;;;;;;;19.43;39.04;101132.09;5069767;28;20285;-71
2023/05/30 07:08:20;;;;;;;5.97;2.33;;;;;;;20.65;36.45;101131.41;5049663;28;20250;-71
2023/05/30 07:10:46;;;;;;;5.37;2.10;;;;;;;22.03;32.53;101127.06;5064430;28;20224;-71
2023/05/30 07:13:12;;;;;;;5.83;2.60;;;;;;;22.44;32.55;101128.81;5070674;28;20198;-71
2023/05/30 07:15:39;;;;;;;6.03;2.10;;;;;;;22.56;32.69;101132.13;5068653;28;20522;-71
2023/05/30 07:18:05;;;;;;;6.70;2.53;;;;;;;22.20;33.43;101140.16;5070577;28;20576;-71
2023/05/30 07:20:31;;;;;;;4.87;2.13;;;;;;;22.18;32.99;101144.69;5068130;28;20661;-71
2023/05/30 07:22:58;;;;;;;6.30;2.10;;;;;;;22.20;32.75;101134.75;5070618;28;20198;-70
2023/05/30 07:25:24;;;;;;;5.97;2.30;;;;;;;22.07;33.68;101139.56;5052221;28;20221;-70
2023/05/30 07:27:51;;;;;;;8.50;2.53;;;;;;;22.35;32.24;101142.50;5070418;28;20215;-71
2023/05/30 07:30:17;;;;;;;7.43;2.67;;;;;;;22.71;32.42;101139.84;5069311;28;20226;-70
2023/05/30 07:32:44;;;;;;;8.67;2.47;;;;;;;23.85;30.99;101144.06;5069132;28;20752;-71
2023/05/30 07:35:10;;;;;;;9.07;2.20;;;;;;;24.65;29.91;101143.41;5065545;28;20202;-71
2023/05/30 07:37:37;;;;;;;7.20;2.27;;;;;;;24.23;29.05;101140.19;5061474;28;20196;-68
2023/05/30 07:40:05;;;;;;;7.40;2.60;;;;;;;23.75;29.62;101155.16;5055458;28;20222;-70
2023/05/30 07:42:32;;;;;;;6.10;2.10;;;;;;;23.06;31.95;101152.50;5068030;28;20286;-70
2023/05/30 07:44:59;;;;;;;5.77;2.10;;;;;;;;;;5066437;28;20280;-70
2023/05/30 07:47:25;;;;;;;4.70;2.03;;;;;;;24.43;29.28;101142.34;5070390;28;20264;-71
2023/05/30 07:49:51;;;;;;;8.47;2.10;;;;;;;24.18;29.30;101143.06;5064853;28;20343;-71
2023/05/30 07:52:18;;;;;;;6.73;2.27;;;;;;;23.90;29.40;101137.56;5060104;28;20608;-71
2023/05/30 07:54:44;;;;;;;5.20;2.60;;;;;;;23.35;30.06;101138.22;5059667;28;20200;-71
2023/05/30 07:57:12;;;;;;;8.33;2.10;;;;;;;22.34;32.08;101145.22;5070525;28;20281;-70
2023/05/30 07:59:42;;;;;;;5.00;2.30;;;;;;;21.74;33.39;101141.13;5066691;28;20198;-70
2023/05/30 08:02:08;;;;;;;6.00;2.40;;;;;;;20.86;35.14;101135.56;5068715;28;20204;-71
2023/05/30 08:04:35;;;;;;;5.33;2.30;;;;;;;20.72;35.42;101144.75;5056519;28;20198;-69
2023/05/30 08:07:02;;;;;;;6.40;2.37;;;;;;;20.32;35.59;101145.31;5062252;28;20193;-71
2023/05/30 08:09:30;;;;;;;6.40;2.43;;;;;;;20.89;34.86;101145.38;5063267;28;20190;-71
2023/05/30 08:11:58;;;;;;;5.00;2.20;;;;;;;21.11;35.09;101137.78;5069982;28;20206;-70
2023/05/30 08:14:24;;;;;;;7.17;2.07;;;;;;;21.45;34.30;101147.06;5069953;28;20682;-70
2023/05/30 08:16:50;;;;;;;5.27;2.27;;;;;;;21.49;33.85;101142.50;5058055;28;20194;-71
2023/05/30 08:19:17;;;;;;;7.33;2.97;;;;;;;21.52;34.58;101140.63;5070204;28;20202;-70
2023/05/30 08:21:44;;;;;;;5.13;2.30;;;;;;;21.91;34.41;101140.75;5063904;28;20210;-71
2023/05/30 08:24:15;;;;;;;5.80;2.23;;;;;;;21.55;34.89;101142.38;5064628;28;20298;-70
2023/05/30 08:26:41;;;;;;;6.70;2.07;;;;;;;21.45;34.61;101130.00;5069785;28;20198;-69
2023/05/30 08:29:07;;;;;;;5.67;1.90;;;;;;;21.45;34.67;101136.28;5066285;28;20448;-71
2023/05/30 08:31:34;;;;;;;6.13;2.30;;;;;;;21.75;34.65;101139.31;5058117;28;20275;-70
2023/05/30 08:34:02;;;;;;;3.50;1.70;;;;;;;21.78;32.78;101137.44;5057834;28;20662;-70
2023/05/30 08:36:29;;;;;;;5.83;2.17;;;;;;;21.89;32.13;101142.59;5065675;28;20221;-70
2023/05/30 08:38:56;;;;;;;6.73;2.33;;;;;;;21.77;31.08;101143.75;5069686;28;20205;-71
2023/05/30 08:41:40;;;;;;;6.77;2.03;;;;;;;21.44;32.60;101139.00;5069625;28;20210;-70
2023/05/30 08:44:07;;;;;;;6.70;2.10;;;;;;;21.05;32.22;101141.50;5056727;28;20248;-71
2023/05/30 08:46:35;;;;;;;5.93;2.33;;;;;;;20.98;31.85;101149.72;5069750;28;20198;-71
2023/05/30 08:49:03;;;;;;;4.47;2.20;;;;;;;20.89;31.44;101137.31;5059736;28;20710;-69
2023/05/30 08:51:30;;;;;;;5.10;2.13;;;;;;;21.04;31.06;101138.81;5069708;28;20220;-72
2023/05/30 08:54:01;;;;;;;4.47;1.73;;;;;;;20.86;30.44;101140.94;5066168;28;20190;-71
2023/05/30 08:56:42;;;;;;;9.33;2.10;;;;;;;21.00;30.52;101139.81;5069819;28;20277;-71
2023/05/30 08:59:10;;;;;;;7.23;1.77;;;;;;;21.37;30.55;101130.16;5053250;28;20194;-71
2023/05/30 09:01:37;;;;;;;4.10;2.00;;;;;;;21.29;29.39;101131.22;5067765;28;20757;-71
2023/05/30 09:04:07;;;;;;;9.40;2.30;;;;;;;21.70;29.79;101123.22;5055394;28;20201;-71
2023/05/30 09:06:36;;;;;;;7.10;2.28;;;;;;;21.83;29.83;101116.66;5069670;28;20198;-69
2023/05/30 09:09:03;;;;;;;8.65;2.58;;;;;;;21.93;29.11;101125.41;5057621;28;20199;-68
2023/05/30 09:11:29;;;;;;;4.53;2.05;;;;;;;21.46;28.69;101119.19;5055919;28;20218;-69
2023/05/30 09:13:56;;;;;;;4.97;2.57;;;;;;;21.31;29.27;101116.81;5064670;28;20206;-69
2023/05/30 09:16:23;;;;;;;5.87;1.97;;;;;;;21.16;28.94;101111.66;5067212;28;20597;-67
2023/05/30 09:18:49;;;;;;;6.73;2.37;;;;;;;21.30;29.92;101115.03;5069975;28;20194;-69
2023/05/30 09:21:16;;;;;;;8.63;2.47;;;;;;;21.70;30.58;101108.84;5063901;28;20719;-69
2023/05/30 09:23:42;;;;;;;5.72;2.38;;;;;;;22.10;29.13;101103.53;5055741;28;20249;-68
2023/05/30 09:26:14;;;;;;;8.30;2.28;;;;;;;22.41;29.02;101099.16;5066259;28;20670;-69
2023/05/30 09:28:43;;;;;;;5.05;1.98;;;;;;;22.08;26.59;101108.94;5064555;28;20214;-69
2023/05/30 09:31:14;;;;;;;6.05;2.08;;;;;;;21.88;26.65;101103.06;5061155;28;20223;-68
2023/05/30 09:33:45;;;;;;;6.28;2.67;;;;;;;21.85;27.28;101104.00;5072349;28;20260;-69
2023/05/30 09:36:19;;;;;;;7.25;2.42;;;;;;;22.19;27.24;101109.59;5054388;28;20238;-68
2023/05/30 09:38:56;;;;;;;7.57;2.42;;;;;;;22.02;26.93;101106.38;5049544;28;20226;-68
2023/05/30 09:41:25;;;;;;;6.78;2.42;;;;;;;22.16;26.32;101109.66;5061570;28;20224;-69
2023/05/30 09:43:55;;;;;;;6.90;2.40;;;;;;;21.99;26.93;101097.41;5061199;28;20254;-69
2023/05/30 09:46:23;;;;;;;4.57;2.13;;;;;;;22.12;27.25;101107.06;5069141;28;20194;-68
2023/05/30 09:48:51;;;;;;;3.45;2.20;;;;;;;22.01;27.46;101100.97;5064816;28;20300;-69
2023/05/30 09:51:19;;;;;;;16.70;2.40;;;;;;;22.29;28.16;101095.88;5062239;28;20225;-69
2023/05/30 09:54:06;;;;;;;9.75;2.53;;;;;;;22.18;26.46;101104.22;5059601;28;20197;-69
2023/05/30 09:56:37;;;;;;;5.88;3.00;;;;;;;22.29;27.51;101095.88;5060767;28;20190;-69
2023/05/30 09:59:08;;;;;;;8.43;2.35;;;;;;;22.43;25.87;101099.16;5072124;28;20194;-69
2023/05/30 10:01:42;;;;;;;10.93;3.03;;;;;;;22.60;25.90;101106.81;5070774;28;20229;-69
2023/05/30 10:04:16;;;;;;;17.10;3.80;;;;;;;22.56;26.36;101097.03;5062380;28;20290;-69
2023/05/30 10:06:45;;;;;;;9.80;2.78;;;;;;;22.65;27.04;101099.50;5061462;28;20615;-70
2023/05/30 10:09:12;;;;;;;7.65;2.05;;;;;;;22.52;26.35;101096.22;5066335;28;20305;-69
2023/05/30 10:11:41;;;;;;;6.35;2.10;;;;;;;22.79;27.31;101105.44;5064483;28;20264;-69
2023/05/30 10:14:08;;;;;;;4.97;2.30;;;;;;;22.93;27.14;101110.53;5068493;28;20281;-69
2023/05/30 10:16:40;;;;;;;10.63;2.50;;;;;;;22.80;28.22;101104.50;5057675;28;20679;-68
2023/05/30 10:19:12;;;;;;;4.07;1.98;;;;;;;22.57;27.24;101107.78;5051248;28;20217;-68
2023/05/30 10:21:40;;;;;;;4.93;2.20;;;;;;;22.59;27.71;101113.16;5072135;28;20645;-69
2023/05/30 10:24:10;;;;;;;6.88;2.15;;;;;;;22.46;27.54;101105.38;5057790;28;20286;-69
2023/05/30 10:26:42;;;;;;;6.40;2.42;;;;;;;22.22;26.70;101105.03;5071158;28;20201;-69
2023/05/30 10:29:13;;;;;;;7.03;2.22;;;;;;;22.17;27.15;101088.97;5064570;28;20224;-68
2023/05/30 10:31:40;;;;;;;7.03;1.98;;;;;;;22.17;27.22;101099.75;5059695;28;20213;-66
2023/05/30 10:34:12;;;;;;;7.53;2.35;;;;;;;22.07;27.16;101100.91;5066365;28;20298;-68
2023/05/30 10:36:42;;;;;;;6.18;2.20;;;;;;;22.00;28.47;101091.09;5070226;28;20654;-69
2023/05/30 10:39:23;;;;;;;5.05;2.20;;;;;;;22.30;27.53;101085.03;5070799;28;20198;-69
2023/05/30 10:41:58;;;;;;;8.10;2.05;;;;;;;22.52;27.40;101078.22;5060990;28;20682;-69
2023/05/30 10:44:54;;;;;;;5.65;2.30;;;;;;;22.58;27.36;101098.78;5043057;28;20206;-68
2023/05/30 10:48:10;;;;;;;3.90;1.90;;;;;;;22.50;26.22;101082.75;5070122;28;20633;-69
2023/05/30 10:50:44;;;;;;;8.30;2.10;;;;;;;22.51;27.26;101089.94;5051532;28;20582;-70
2023/05/30 10:53:14;;;;;;;5.82;2.33;;;;;;;22.80;27.87;101082.91;5061017;28;20201;-69
2023/05/30 10:55:43;;;;;;;6.65;2.58;;;;;;;22.83;28.24;101085.59;5064778;28;20224;-68
2023/05/30 10:58:38;;;;;;;4.38;2.22;;;;;;;22.55;28.56;101073.66;5059887;28;20199;-69
2023/05/30 11:01:26;;;;;;;4.20;2.10;;;;;;;22.60;28.12;101080.72;5061765;22;20234;-67
2023/05/30 11:04:05;;;;;;;4.57;2.25;;;;;;;22.45;28.42;101070.31;5026378;28;20257;-67
2023/05/30 11:06:38;;;;;;;3.70;2.10;;;;;;;22.54;27.95;101075.47;5019443;28;20261;-68
2023/05/30 11:09:06;;;;;;;7.18;2.45;;;;;;;22.49;27.75;101069.31;5024607;28;20223;-67
2023/05/30 11:11:37;;;;;;;4.65;1.88;;;;;;;22.33;27.71;101070.59;5025727;28;20718;-67
2023/05/30 11:14:05;;;;;;;5.30;2.35;;;;;;;22.33;27.58;101065.19;5028890;28;20215;-68
2023/05/30 11:16:32;;;;;;;4.60;1.90;;;;;;;22.31;27.52;101076.03;5015228;28;20205;-69
2023/05/30 11:19:11;;;;;;;5.72;1.85;;;;;;;22.38;27.10;101064.16;5029198;28;20633;-67
2023/05/30 11:21:58;;;;;;;8.27;2.25;;;;;;;22.40;27.38;101064.09;5027607;28;20601;-67
2023/05/30 11:24:25;;;;;;;5.55;1.98;;;;;;;22.54;27.64;101053.00;5027943;28;20294;-69
2023/05/30 11:27:06;;;;;;;6.38;2.40;;;;;;;22.60;27.65;101047.44;5029238;28;20278;-67
2023/05/30 11:29:36;;;;;;;3.45;2.05;;;;;;;22.59;27.19;101061.84;5025122;28;20329;-69
2023/05/30 11:32:07;;;;;;;4.93;2.22;;;;;;;22.65;27.79;101051.78;5022678;28;21147;-69